Time;durP1;ratioP1;P1;durP2;ratioP2;P2;SDS_P1;SDS_P2;PMS_P1;PMS_P2;Temp;Humidity;BMP_temperature;BMP_pressure;BME280_temperature;BME280_humidity;BME280_pressure;Samples;Min_cycle;Max_cycle;Signal;HPM_P1;HPM_P2
2022/09/11 00:00:48;;;;;;;24.77;18.48;;;13.80;99.90;;;;;;5072244;28;20047;-56
2022/09/11 00:03:15;;;;;;;26.55;19.20;;;13.80;99.90;;;;;;5072538;28;20044;-56
2022/09/11 00:05:42;;;;;;;25.13;19.35;;;13.90;99.90;;;;;;5072123;28;20051;-56
2022/09/11 00:08:10;;;;;;;23.77;18.02;;;13.90;99.90;;;;;;5072499;28;20033;-56
2022/09/11 00:10:41;;;;;;;24.20;19.05;;;13.90;99.90;;;;;;5072267;28;20090;-57
2022/09/11 00:13:09;;;;;;;24.20;17.38;;;13.90;99.90;;;;;;5072213;28;20440;-61
2022/09/11 00:15:39;;;;;;;24.65;18.42;;;14.00;99.90;;;;;;5053848;28;20399;-55
2022/09/11 00:18:06;;;;;;;22.63;17.02;;;13.90;99.90;;;;;;5072001;28;20467;-57
2022/09/11 00:20:33;;;;;;;16.55;12.73;;;13.90;99.90;;;;;;5071560;28;20498;-56
2022/09/11 00:23:03;;;;;;;16.48;12.55;;;13.90;99.90;;;;;;5071863;28;20052;-57
2022/09/11 00:25:39;;;;;;;15.85;12.90;;;13.90;99.90;;;;;;5037817;28;20048;-57
2022/09/11 00:28:05;;;;;;;18.15;13.52;;;13.90;99.90;;;;;;5072181;28;20119;-56
2022/09/11 00:30:32;;;;;;;21.27;15.27;;;13.90;99.90;;;;;;5072309;28;20055;-56
2022/09/11 00:32:58;;;;;;;23.08;17.10;;;14.00;99.90;;;;;;5072431;28;20038;-56
2022/09/11 00:35:24;;;;;;;25.23;18.30;;;14.10;99.90;;;;;;5071422;28;20040;-56
2022/09/11 00:37:50;;;;;;;23.45;17.50;;;14.10;99.90;;;;;;5071643;28;20123;-56
2022/09/11 00:40:18;;;;;;;25.23;18.83;;;14.10;99.90;;;;;;5071643;28;20105;-57
2022/09/11 00:42:44;;;;;;;29.13;20.20;;;14.20;99.90;;;;;;5071534;28;20045;-56
2022/09/11 00:45:25;;;;;;;25.05;18.77;;;14.20;99.90;;;;;;5071480;28;20047;-56
2022/09/11 00:47:57;;;;;;;27.77;19.00;;;14.30;99.90;;;;;;5058940;28;20036;-56
2022/09/11 00:50:26;;;;;;;24.98;17.65;;;14.30;99.90;;;;;;5071996;28;20044;-56
2022/09/11 00:53:00;;;;;;;26.73;18.58;;;14.40;99.90;;;;;;5071750;28;20097;-56
2022/09/11 00:55:27;;;;;;;;;;;14.40;99.90;;;;;;5071959;28;20068;-56
2022/09/11 00:58:06;;;;;;;16.67;14.45;;;14.40;99.90;;;;;;5071896;28;19932;-56
2022/09/11 01:00:33;;;;;;;24.23;17.77;;;14.40;99.90;;;;;;5053674;28;20101;-56
2022/09/11 01:02:59;;;;;;;23.98;15.60;;;14.40;99.90;;;;;;5071863;28;20056;-56
2022/09/11 01:05:27;;;;;;;20.63;16.00;;;14.40;99.90;;;;;;5071214;28;20043;-56
2022/09/11 01:07:54;;;;;;;23.98;17.13;;;14.40;99.90;;;;;;5071783;28;20040;-56
2022/09/11 01:10:46;;;;;;;24.25;16.13;;;14.40;99.90;;;;;;5071395;28;20036;-56
2022/09/11 01:13:33;;;;;;;23.95;17.15;;;14.50;99.90;;;;;;5071028;28;20398;-56
2022/09/11 01:16:19;;;;;;;25.27;17.50;;;14.40;99.90;;;;;;5071382;28;20534;-56
2022/09/11 01:19:15;;;;;;;22.73;15.85;;;14.40;99.90;;;;;;5065369;28;20461;-56
2022/09/11 01:22:09;;;;;;;21.83;17.02;;;14.30;99.90;;;;;;5034731;28;20045;-56
2022/09/11 01:24:55;;;;;;;19.58;15.50;;;14.30;99.90;;;;;;5071426;28;20123;-56
2022/09/11 01:27:38;;;;;;;24.55;16.88;;;14.30;99.90;;;;;;5070364;28;20056;-56
2022/09/11 01:30:10;;;;;;;19.83;16.95;;;14.30;99.90;;;;;;5071581;28;20060;-56
2022/09/11 01:33:01;;;;;;;22.65;16.77;;;14.20;99.90;;;;;;5072478;28;20133;-56
2022/09/11 01:35:39;;;;;;;18.23;14.30;;;14.10;99.90;;;;;;5081132;28;20044;-56
2022/09/11 01:38:19;;;;;;;20.88;16.05;;;14.00;99.90;;;;;;5064028;28;20040;-56
2022/09/11 01:40:54;;;;;;;21.40;16.02;;;14.10;99.90;;;;;;5075629;28;20041;-56
2022/09/11 01:43:25;;;;;;;20.58;15.43;;;14.10;99.90;;;;;;5075693;28;20037;-56
2022/09/11 01:45:53;;;;;;;21.38;15.32;;;14.10;99.90;;;;;;5075388;28;20036;-56
2022/09/11 01:48:28;;;;;;;23.52;15.27;;;14.10;99.90;;;;;;5074612;28;20044;-56
2022/09/11 01:50:55;;;;;;;21.27;15.50;;;14.10;99.90;;;;;;5056715;28;20040;-55
2022/09/11 01:53:27;;;;;;;21.25;16.13;;;14.10;99.90;;;;;;5074892;28;20049;-55
2022/09/11 01:56:04;;;;;;;18.88;13.98;;;14.00;99.90;;;;;;5074878;28;20129;-57
2022/09/11 01:58:33;;;;;;;18.60;14.07;;;14.00;99.90;;;;;;5074953;28;20048;-56
2022/09/11 02:01:11;;;;;;;19.73;14.88;;;14.00;99.90;;;;;;5074162;28;20090;-57
2022/09/11 02:03:40;;;;;;;18.95;13.98;;;14.00;99.90;;;;;;5074979;28;20049;-56
2022/09/11 02:06:21;;;;;;;19.30;14.98;;;13.90;99.90;;;;;;5073515;28;20056;-56
2022/09/11 02:08:54;;;;;;;16.08;13.20;;;13.90;99.90;;;;;;5074295;28;20048;-57
2022/09/11 02:11:21;;;;;;;17.88;12.95;;;13.80;99.90;;;;;;5073923;28;20044;-56
2022/09/11 02:14:04;;;;;;;17.45;13.30;;;13.80;99.90;;;;;;5074307;28;20432;-56
2022/09/11 02:16:51;;;;;;;20.10;14.77;;;13.80;99.90;;;;;;5064884;28;20727;-59
2022/09/11 02:19:28;;;;;;;21.75;14.80;;;13.80;99.90;;;;;;5053235;28;20120;-57
2022/09/11 02:21:56;;;;;;;17.95;13.60;;;13.80;99.90;;;;;;5065371;28;20043;-56
2022/09/11 02:24:22;;;;;;;23.98;17.17;;;13.80;99.90;;;;;;5074361;28;20049;-60
2022/09/11 02:26:54;;;;;;;18.00;14.57;;;13.70;99.90;;;;;;5074349;28;20044;-57
2022/09/11 02:29:20;;;;;;;20.05;13.43;;;13.80;99.90;;;;;;5074013;28;20399;-57
2022/09/11 02:31:46;;;;;;;17.80;13.40;;;13.70;99.90;;;;;;5074704;28;20063;-56
2022/09/11 02:34:14;;;;;;;21.65;16.33;;;13.70;99.90;;;;;;5074233;28;20044;-56
2022/09/11 02:37:05;;;;;;;17.70;14.38;;;13.80;99.90;;;;;;5071994;28;20178;-55
2022/09/11 02:39:41;;;;;;;17.50;13.95;;;13.70;99.90;;;;;;5071446;28;20037;-56
2022/09/11 02:42:42;;;;;;;20.75;15.10;;;13.70;99.90;;;;;;5061483;28;20044;-56
2022/09/11 02:45:34;;;;;;;17.90;13.73;;;13.70;99.90;;;;;;5035912;28;20048;-56
2022/09/11 02:48:24;;;;;;;17.95;12.70;;;13.70;99.90;;;;;;5054949;28;20048;-58
2022/09/11 02:51:03;;;;;;;17.25;13.02;;;13.70;99.90;;;;;;5073401;28;20053;-60
2022/09/11 02:53:46;;;;;;;17.83;13.32;;;13.60;99.90;;;;;;5073793;28;20067;-57
2022/09/11 02:56:30;;;;;;;17.08;12.05;;;13.60;99.90;;;;;;5055465;28;20037;-57
2022/09/11 02:59:01;;;;;;;19.98;12.88;;;13.60;99.90;;;;;;5074108;28;20048;-56
2022/09/11 03:01:27;;;;;;;18.13;12.93;;;13.60;99.90;;;;;;5073777;28;20147;-56
2022/09/11 03:03:52;;;;;;;14.40;10.95;;;13.50;99.90;;;;;;5073290;28;20123;-56
2022/09/11 03:06:22;;;;;;;16.15;12.20;;;13.50;99.90;;;;;;5073273;28;20146;-56
2022/09/11 03:08:48;;;;;;;10.05;8.13;;;13.40;99.90;;;;;;5073122;28;20101;-57
2022/09/11 03:11:16;;;;;;;11.43;9.50;;;13.40;99.90;;;;;;5073785;28;20119;-56
2022/09/11 03:13:43;;;;;;;11.20;9.73;;;13.30;99.90;;;;;;5054956;28;20048;-57
2022/09/11 03:16:09;;;;;;;11.10;9.10;;;13.30;99.90;;;;;;5072609;28;20040;-56
2022/09/11 03:18:35;;;;;;;11.65;10.40;;;13.30;99.90;;;;;;5069273;28;20048;-56
2022/09/11 03:21:02;;;;;;;18.15;11.75;;;13.30;99.90;;;;;;5073647;28;20052;-56
2022/09/11 03:23:28;;;;;;;13.07;9.98;;;13.20;99.90;;;;;;5072969;28;20389;-57
2022/09/11 03:25:57;;;;;;;13.52;10.55;;;13.20;99.90;;;;;;5073002;28;20522;-56
2022/09/11 03:28:23;;;;;;;13.52;11.15;;;13.20;99.90;;;;;;5072648;28;20056;-57
2022/09/11 03:30:49;;;;;;;13.95;10.95;;;13.20;99.90;;;;;;5072880;28;20048;-57
2022/09/11 03:33:16;;;;;;;14.68;10.90;;;13.20;99.90;;;;;;5072840;28;20110;-57
2022/09/11 03:35:45;;;;;;;15.70;12.32;;;13.20;99.90;;;;;;5053824;28;20060;-57
2022/09/11 03:38:11;;;;;;;14.82;12.30;;;13.20;99.90;;;;;;5072783;28;20044;-57
2022/09/11 03:40:40;;;;;;;16.73;11.43;;;13.20;99.90;;;;;;5072571;28;20098;-57
2022/09/11 03:43:06;;;;;;;15.48;12.55;;;13.30;99.90;;;;;;5072897;28;20056;-57
2022/09/11 03:45:31;;;;;;;13.98;11.63;;;13.30;99.90;;;;;;5072657;28;20048;-57
2022/09/11 03:47:57;;;;;;;19.52;12.95;;;13.20;99.90;;;;;;5072964;28;20036;-56
2022/09/11 03:50:23;;;;;;;13.77;11.48;;;13.30;99.90;;;;;;5072423;28;20043;-56
2022/09/11 03:52:49;;;;;;;15.52;11.63;;;13.20;99.90;;;;;;5070257;28;20441;-56
2022/09/11 03:55:15;;;;;;;12.15;10.35;;;13.30;99.90;;;;;;5071556;28;20082;-56
2022/09/11 03:57:41;;;;;;;13.90;11.38;;;13.10;99.90;;;;;;5071937;28;20097;-56
2022/09/11 04:00:07;;;;;;;13.02;11.13;;;13.10;99.90;;;;;;5072719;28;20119;-56
2022/09/11 04:02:33;;;;;;;8.73;7.72;;;13.10;99.90;;;;;;5063707;28;20048;-56
2022/09/11 04:04:59;;;;;;;9.00;6.68;;;13.10;99.90;;;;;;5072466;28;20390;-56
2022/09/11 04:07:24;;;;;;;6.78;6.00;;;13.10;99.90;;;;;;5071493;28;20048;-56
2022/09/11 04:09:50;;;;;;;9.00;7.43;;;13.00;99.90;;;;;;5071448;28;20032;-56
2022/09/11 04:12:17;;;;;;;12.43;9.25;;;13.10;99.90;;;;;;5071908;28;20379;-56
2022/09/11 04:14:43;;;;;;;10.18;8.73;;;13.50;99.90;;;;;;5072413;28;20055;-56
2022/09/11 04:17:09;;;;;;;10.82;7.95;;;12.90;99.90;;;;;;5065734;28;20037;-56
2022/09/11 04:19:34;;;;;;;9.38;7.38;;;12.90;99.90;;;;;;5071079;28;20828;-56
2022/09/11 04:22:00;;;;;;;9.77;7.85;;;12.90;99.90;;;;;;5021022;28;20052;-56
2022/09/11 04:24:26;;;;;;;10.63;7.72;;;12.90;99.90;;;;;;5053952;28;20041;-56
2022/09/11 04:26:51;;;;;;;10.65;8.73;;;12.90;99.90;;;;;;5072466;28;20044;-56
2022/09/11 04:29:17;;;;;;;10.27;7.82;;;12.80;99.90;;;;;;5071738;28;20616;-56
2022/09/11 04:31:43;;;;;;;9.10;7.63;;;12.80;99.90;;;;;;5072046;28;20045;-56
2022/09/11 04:34:10;;;;;;;7.30;6.60;;;12.80;99.90;;;;;;5071926;28;20075;-56
2022/09/11 04:36:36;;;;;;;6.32;5.65;;;12.80;99.90;;;;;;5072050;28;20538;-56
2022/09/11 04:39:02;;;;;;;8.15;6.90;;;12.80;99.90;;;;;;5072385;28;20123;-56
2022/09/11 04:41:27;;;;;;;9.48;7.60;;;12.80;99.90;;;;;;5071349;28;20403;-56
2022/09/11 04:43:55;;;;;;;7.40;6.65;;;12.80;99.90;;;;;;5072112;28;20037;-56
2022/09/11 04:46:23;;;;;;;10.90;7.97;;;12.70;99.90;;;;;;5072371;28;20124;-56
2022/09/11 04:48:58;;;;;;;13.43;9.02;;;12.90;99.90;;;;;;5072070;28;20043;-56
2022/09/11 04:51:29;;;;;;;9.82;8.38;;;12.70;99.90;;;;;;5071791;28;20051;-56
2022/09/11 04:53:56;;;;;;;9.52;8.18;;;12.70;99.90;;;;;;5053836;28;20040;-56
2022/09/11 04:56:24;;;;;;;12.32;10.10;;;12.90;99.90;;;;;;5071543;28;20048;-56
2022/09/11 04:58:54;;;;;;;9.20;7.40;;;13.10;99.90;;;;;;5070715;28;20036;-56
2022/09/11 05:01:21;;;;;;;7.97;5.90;;;12.70;99.90;;;;;;5053081;28;20577;-56
2022/09/11 05:03:47;;;;;;;11.65;7.22;;;12.70;99.90;;;;;;5070985;28;20371;-56
2022/09/11 05:06:15;;;;;;;9.80;6.95;;;12.70;99.90;;;;;;5053625;28;20101;-56
2022/09/11 05:08:43;;;;;;;9.75;6.88;;;12.70;99.90;;;;;;5057280;28;20478;-56
2022/09/11 05:11:13;;;;;;;8.95;7.97;;;12.70;99.90;;;;;;5075080;28;20196;-56
2022/09/11 05:13:40;;;;;;;8.98;7.15;;;12.70;99.90;;;;;;5076101;28;20047;-56
2022/09/11 05:16:12;;;;;;;8.48;7.20;;;12.80;99.90;;;;;;5076052;28;20041;-56
2022/09/11 05:18:39;;;;;;;8.68;6.45;;;12.80;99.90;;;;;;5057609;28;20080;-56
2022/09/11 05:21:11;;;;;;;8.35;5.47;;;12.90;99.90;;;;;;5075362;28;20375;-56
2022/09/11 05:23:38;;;;;;;6.90;6.20;;;13.10;99.90;;;;;;5074989;28;20048;-56
2022/09/11 05:26:05;;;;;;;11.10;7.18;;;12.90;99.90;;;;;;5075813;28;20036;-57
2022/09/11 05:28:31;;;;;;;7.53;5.72;;;12.90;99.90;;;;;;5075300;28;20141;-57
2022/09/11 05:30:58;;;;;;;6.80;6.10;;;12.80;99.90;;;;;;5076012;28;20033;-56
2022/09/11 05:33:25;;;;;;;6.43;5.60;;;12.80;99.90;;;;;;5074983;28;20048;-56
2022/09/11 05:36:01;;;;;;;7.32;5.50;;;12.80;99.90;;;;;;5074391;28;20119;-57
2022/09/11 05:38:27;;;;;;;5.75;5.22;;;12.80;99.90;;;;;;5026767;28;20498;-56
2022/09/11 05:40:53;;;;;;;5.78;5.22;;;12.80;99.90;;;;;;5068689;28;20055;-57
2022/09/11 05:43:19;;;;;;;6.03;5.43;;;12.90;99.90;;;;;;5074720;28;20059;-57
2022/09/11 05:45:53;;;;;;;6.30;5.72;;;12.90;99.90;;;;;;5056113;28;20036;-58
2022/09/11 05:48:19;;;;;;;5.72;4.85;;;12.90;99.90;;;;;;5075115;28;20044;-56
2022/09/11 05:50:55;;;;;;;5.82;5.32;;;12.90;99.90;;;;;;5075138;28;20048;-56
2022/09/11 05:53:21;;;;;;;6.75;6.15;;;13.00;99.90;;;;;;5074565;28;20040;-56
2022/09/11 05:55:48;;;;;;;6.05;5.45;;;13.20;99.90;;;;;;5074716;28;20098;-56
2022/09/11 05:58:16;;;;;;;7.57;6.88;;;13.20;99.90;;;;;;5074708;28;20060;-56
2022/09/11 06:00:45;;;;;;;7.57;6.80;;;13.20;99.90;;;;;;5075042;28;20052;-56
2022/09/11 06:03:15;;;;;;;7.03;6.43;;;13.30;99.90;;;;;;5074660;28;20558;-56
2022/09/11 06:05:41;;;;;;;7.05;6.35;;;13.40;99.90;;;;;;5074812;28;20039;-56
2022/09/11 06:08:08;;;;;;;6.25;5.70;;;13.50;99.90;;;;;;5074550;28;20040;-55
2022/09/11 06:10:46;;;;;;;6.47;5.82;;;13.60;99.90;;;;;;5074695;28;20173;-56
2022/09/11 06:13:16;;;;;;;7.13;5.78;;;13.70;99.90;;;;;;5070838;28;20063;-56
2022/09/11 06:15:45;;;;;;;7.07;5.90;;;13.90;99.90;;;;;;5074712;28;20035;-56
2022/09/11 06:18:12;;;;;;;6.60;5.95;;;14.00;99.90;;;;;;5074011;28;20124;-56
2022/09/11 06:20:38;;;;;;;8.65;7.85;;;14.20;99.90;;;;;;5074385;28;20571;-56
2022/09/11 06:23:03;;;;;;;8.98;8.07;;;14.30;99.90;;;;;;5046360;28;20052;-56
2022/09/11 06:25:29;;;;;;;10.45;8.07;;;14.50;99.90;;;;;;5054179;28;20542;-56
2022/09/11 06:27:55;;;;;;;10.55;7.13;;;14.60;99.90;;;;;;5074006;28;20490;-56
2022/09/11 06:30:21;;;;;;;8.43;7.00;;;14.80;99.90;;;;;;5051193;28;20081;-56
2022/09/11 06:32:48;;;;;;;9.45;7.47;;;15.00;99.90;;;;;;5067434;28;20084;-56
2022/09/11 06:35:14;;;;;;;8.57;7.43;;;15.30;99.90;;;;;;5074022;28;20090;-56
2022/09/11 06:37:40;;;;;;;9.20;8.00;;;15.50;99.90;;;;;;5074515;28;20084;-56
2022/09/11 06:40:06;;;;;;;11.27;7.70;;;15.70;99.90;;;;;;5074347;28;20132;-56
2022/09/11 06:42:32;;;;;;;8.98;7.90;;;15.90;99.90;;;;;;5073559;28;20048;-56
2022/09/11 06:44:58;;;;;;;8.82;6.90;;;16.10;99.90;;;;;;5074029;28;20049;-56
2022/09/11 06:47:24;;;;;;;8.63;7.72;;;16.20;99.90;;;;;;5056545;28;20090;-56
2022/09/11 06:49:49;;;;;;;9.07;8.13;;;16.50;99.90;;;;;;5073952;28;20155;-56
2022/09/11 06:52:15;;;;;;;9.85;8.15;;;16.60;99.90;;;;;;5074108;28;20045;-56
2022/09/11 06:54:41;;;;;;;9.02;7.53;;;16.90;99.90;;;;;;5073821;28;20044;-56
2022/09/11 06:57:06;;;;;;;6.97;6.30;;;17.10;99.90;;;;;;5073848;28;20119;-56
2022/09/11 06:59:32;;;;;;;8.73;7.10;;;17.30;99.90;;;;;;5073611;28;20047;-56
2022/09/11 07:01:59;;;;;;;7.38;6.68;;;17.50;99.90;;;;;;5070236;28;20068;-56
2022/09/11 07:04:25;;;;;;;8.35;7.55;;;17.70;99.90;;;;;;5073722;28;20516;-56
2022/09/11 07:06:51;;;;;;;8.85;6.95;;;17.90;99.90;;;;;;5068425;28;20133;-56
2022/09/11 07:09:17;;;;;;;9.02;8.13;;;18.10;99.90;;;;;;5065466;28;20111;-56
2022/09/11 07:11:45;;;;;;;7.75;6.95;;;18.30;99.90;;;;;;5048563;28;20041;-57
2022/09/11 07:14:11;;;;;;;9.88;6.07;;;18.50;99.90;;;;;;5064573;28;20055;-56
2022/09/11 07:16:37;;;;;;;10.68;7.13;;;18.70;99.90;;;;;;5063868;28;20398;-57
2022/09/11 07:19:03;;;;;;;8.35;7.03;;;18.90;99.90;;;;;;5064084;28;20037;-57
2022/09/11 07:21:30;;;;;;;10.27;6.55;;;19.10;99.90;;;;;;5063992;28;20064;-57
2022/09/11 07:23:58;;;;;;;8.50;6.72;;;19.30;99.90;;;;;;5048464;28;20071;-57
2022/09/11 07:26:27;;;;;;;7.95;6.78;;;19.40;99.90;;;;;;5073093;28;20047;-56
2022/09/11 07:28:54;;;;;;;7.80;7.00;;;19.50;99.90;;;;;;5069365;28;20494;-56
2022/09/11 07:31:28;;;;;;;7.63;6.45;;;19.60;99.90;;;;;;5061963;28;20045;-56
2022/09/11 07:33:54;;;;;;;9.30;7.07;;;19.90;99.90;;;;;;5073368;28;20090;-57
2022/09/11 07:36:25;;;;;;;8.15;6.95;;;20.00;99.90;;;;;;5072279;28;20044;-57
2022/09/11 07:38:53;;;;;;;8.07;6.35;;;20.20;99.90;;;;;;5073147;28;20050;-57
2022/09/11 07:41:20;;;;;;;7.43;6.70;;;20.50;99.90;;;;;;5072542;28;20044;-56
2022/09/11 07:43:50;;;;;;;10.75;6.40;;;20.70;99.90;;;;;;5073357;28;20051;-57
2022/09/11 07:46:16;;;;;;;7.07;6.32;;;20.90;99.90;;;;;;5073281;28;20044;-57
2022/09/11 07:48:42;;;;;;;9.13;7.25;;;20.90;99.90;;;;;;5072899;28;20123;-57
2022/09/11 07:51:10;;;;;;;7.47;6.32;;;21.00;99.90;;;;;;5072601;28;20049;-57
2022/09/11 07:53:48;;;;;;;8.85;6.43;;;20.80;99.90;;;;;;5072416;28;20037;-56
2022/09/11 07:56:17;;;;;;;8.70;6.55;;;20.70;99.90;;;;;;5072430;28;20037;-57
2022/09/11 07:58:43;;;;;;;6.80;4.97;;;21.00;99.90;;;;;;5054500;28;20052;-57
2022/09/11 08:01:11;;;;;;;11.00;6.65;;;20.70;99.90;;;;;;5071489;28;20383;-57
2022/09/11 08:03:37;;;;;;;10.65;7.13;;;20.50;99.90;;;;;;5072384;28;20105;-56
2022/09/11 08:06:09;;;;;;;9.23;5.82;;;20.70;99.90;;;;;;5069729;28;20051;-57
2022/09/11 08:08:36;;;;;;;7.40;5.35;;;20.70;99.90;;;;;;5053984;28;20124;-56
2022/09/11 08:11:05;;;;;;;8.70;5.32;;;20.50;99.90;;;;;;5072276;28;20048;-57
2022/09/11 08:13:32;;;;;;;8.55;5.80;;;21.20;99.90;;;;;;5072097;28;20102;-57
2022/09/11 08:15:58;;;;;;;8.30;5.88;;;21.70;99.90;;;;;;5071970;28;20037;-57
2022/09/11 08:18:24;;;;;;;7.00;4.60;;;22.10;99.90;;;;;;5072023;28;20525;-57
2022/09/11 08:20:50;;;;;;;4.95;4.40;;;22.20;99.90;;;;;;5071807;28;20087;-57
2022/09/11 08:23:15;;;;;;;7.60;4.50;;;22.70;99.90;;;;;;5071979;28;20064;-57
2022/09/11 08:25:42;;;;;;;7.68;4.32;;;23.50;99.90;;;;;;5071882;28;20064;-57
2022/09/11 08:28:08;;;;;;;5.10;3.35;;;23.60;99.90;;;;;;5071088;28;20368;-56
2022/09/11 08:30:37;;;;;;;4.25;3.35;;;23.60;99.90;;;;;;5067696;28;20559;-57
2022/09/11 08:33:05;;;;;;;5.90;3.50;;;24.10;99.90;;;;;;5061970;28;20055;-57
2022/09/11 08:35:34;;;;;;;4.55;2.08;;;23.10;99.90;;;;;;5072870;28;20092;-57
2022/09/11 08:38:02;;;;;;;6.45;2.30;;;23.20;99.90;;;;;;5040667;28;20051;-57
2022/09/11 08:40:29;;;;;;;4.00;2.05;;;22.70;99.90;;;;;;5065316;28;20044;-57
2022/09/11 08:42:59;;;;;;;3.08;2.10;;;22.70;99.90;;;;;;5052579;28;20054;-57
2022/09/11 08:45:30;;;;;;;2.70;1.50;;;22.90;99.90;;;;;;5069316;28;20566;-57
2022/09/11 08:47:57;;;;;;;3.45;1.73;;;22.90;99.90;;;;;;5071688;28;20363;-57
2022/09/11 08:50:26;;;;;;;3.60;1.77;;;23.00;99.90;;;;;;5070384;28;20087;-57
2022/09/11 08:52:55;;;;;;;2.72;1.77;;;23.00;99.90;;;;;;5071660;28;20119;-57
2022/09/11 08:55:31;;;;;;;3.60;1.98;;;23.30;99.90;;;;;;5071235;28;20063;-57
2022/09/11 08:58:29;;;;;;;6.60;1.98;;;23.20;99.90;;;;;;5070172;28;20433;-57
2022/09/11 09:01:07;;;;;;;2.97;1.95;;;23.20;99.90;;;;;;5017237;28;20056;-57
2022/09/11 09:04:00;;;;;;;6.40;3.00;;;23.90;99.90;;;;;;5070119;28;20589;-57
2022/09/11 09:06:34;;;;;;;3.85;2.08;;;24.40;99.90;;;;;;5070842;28;20501;-57
2022/09/11 09:09:25;;;;;;;3.85;2.03;;;24.50;99.90;;;;;;5071143;28;20045;-57
2022/09/11 09:12:09;;;;;;;5.82;1.80;;;25.40;99.90;;;;;;5055493;28;20402;-57
2022/09/11 09:14:49;;;;;;;1.85;1.70;;;25.80;99.90;;;;;;5070985;28;20052;-57
2022/09/11 09:17:31;;;;;;;2.75;1.60;;;26.00;99.90;;;;;;5072074;28;20036;-57
2022/09/11 09:20:02;;;;;;;3.00;1.67;;;26.50;99.90;;;;;;5057519;28;20032;-57
2022/09/11 09:22:34;;;;;;;3.15;1.52;;;26.80;99.90;;;;;;5070976;28;20457;-58
2022/09/11 09:25:10;;;;;;;3.60;1.77;;;27.20;99.90;;;;;;5071743;28;20044;-57
2022/09/11 09:27:45;;;;;;;2.88;1.58;;;27.30;99.90;;;;;;5071934;28;20036;-57
2022/09/11 09:30:23;;;;;;;3.95;1.17;;;27.70;99.90;;;;;;5071183;28;20120;-57
2022/09/11 09:33:36;;;;;;;1.60;1.40;;;27.10;99.90;;;;;;5071781;28;20041;-57
2022/09/11 09:36:12;;;;;;;3.35;1.58;;;27.00;99.90;;;;;;4978536;28;20046;-57
2022/09/11 09:38:38;;;;;;;3.10;1.30;;;27.20;99.90;;;;;;5056763;28;20052;-57
2022/09/11 09:41:22;;;;;;;7.22;2.70;;;27.30;99.90;;;;;;5071747;28;20052;-58
2022/09/11 09:44:15;;;;;;;1.65;1.30;;;28.10;99.90;;;;;;5055810;28;20394;-57
2022/09/11 09:46:45;;;;;;;3.80;1.83;;;28.60;99.90;;;;;;5071348;28;20511;-57
2022/09/11 09:49:15;;;;;;;1.23;1.13;;;28.80;99.90;;;;;;5071440;28;20388;-57
2022/09/11 09:51:41;;;;;;;2.20;1.17;;;29.00;99.90;;;;;;5071075;28;20115;-57
2022/09/11 09:54:14;;;;;;;11.57;1.60;;;29.40;99.90;;;;;;5073422;28;20119;-57
2022/09/11 09:56:41;;;;;;;;;;;29.80;99.90;;;;;;5067386;28;20087;-58
2022/09/11 09:59:07;;;;;;;1.13;1.00;;;29.90;97.80;;;;;;5075082;28;19927;-57
2022/09/11 10:01:45;;;;;;;1.30;0.80;;;29.80;99.90;;;;;;5057301;28;20040;-57
2022/09/11 10:04:29;;;;;;;4.10;1.58;;;29.60;97.00;;;;;;5074975;28;20041;-58
2022/09/11 10:07:05;;;;;;;;;;;28.90;98.50;;;;;;5056848;28;20182;-57
2022/09/11 10:09:31;;;;;;;2.13;1.40;;;28.50;98.10;;;;;;5075237;28;19920;-58
2022/09/11 10:12:01;;;;;;;2.97;1.60;;;29.00;99.90;;;;;;5075219;28;20045;-57
2022/09/11 10:14:29;;;;;;;2.58;1.17;;;28.80;99.90;;;;;;5074955;28;20047;-57
2022/09/11 10:16:55;;;;;;;4.43;1.60;;;28.20;99.90;;;;;;5071087;28;20055;-57
2022/09/11 10:19:37;;;;;;;2.78;1.88;;;28.20;99.90;;;;;;5072457;28;20386;-57
2022/09/11 10:22:30;;;;;;;4.18;1.50;;;28.00;99.70;;;;;;5074708;28;20127;-57
2022/09/11 10:25:05;;;;;;;1.10;0.82;;;27.40;99.90;;;;;;5074771;28;20131;-57
2022/09/11 10:27:43;;;;;;;3.20;1.48;;;26.70;99.90;;;;;;5074129;28;20490;-57
2022/09/11 10:30:30;;;;;;;2.25;1.25;;;26.20;99.90;;;;;;5074701;28;20056;-57
2022/09/11 10:32:57;;;;;;;4.35;1.35;;;25.60;99.90;;;;;;5074882;28;20052;-58
2022/09/11 10:35:26;;;;;;;4.47;1.38;;;25.30;99.90;;;;;;5073770;28;20505;-57
2022/09/11 10:38:17;;;;;;;5.22;1.58;;;25.30;99.90;;;;;;5074491;28;20094;-58
2022/09/11 10:41:06;;;;;;;2.58;1.23;;;25.00;99.90;;;;;;5035453;28;20112;-58
2022/09/11 10:44:04;;;;;;;3.05;1.52;;;24.70;99.90;;;;;;5074452;28;20041;-57
2022/09/11 10:46:33;;;;;;;4.10;1.42;;;24.30;99.90;;;;;;5066772;28;20125;-57
2022/09/11 10:49:02;;;;;;;2.35;2.03;;;23.90;99.90;;;;;;5072907;28;20090;-58
2022/09/11 10:51:30;;;;;;;2.42;1.00;;;24.20;99.90;;;;;;5073852;28;20051;-58
2022/09/11 10:53:55;;;;;;;4.18;1.40;;;23.60;99.90;;;;;;5073779;28;20044;-58
2022/09/11 10:56:22;;;;;;;2.95;1.73;;;23.40;99.90;;;;;;5073346;28;20044;-58
2022/09/11 10:58:54;;;;;;;2.28;1.17;;;23.30;99.90;;;;;;5054701;28;20056;-58
2022/09/11 11:01:20;;;;;;;4.80;1.70;;;23.20;99.90;;;;;;5073719;28;20045;-57
2022/09/11 11:03:46;;;;;;;4.50;1.63;;;23.00;99.90;;;;;;5072467;28;20063;-57
2022/09/11 11:06:32;;;;;;;3.15;1.50;;;22.80;99.90;;;;;;5072941;28;20124;-58
2022/09/11 11:09:18;;;;;;;2.78;1.67;;;22.60;99.90;;;;;;5073384;28;20048;-57
2022/09/11 11:12:12;;;;;;;2.70;1.88;;;22.40;99.90;;;;;;5056938;28;20040;-57
2022/09/11 11:14:38;;;;;;;;;;;22.30;99.90;;;;;;5073205;28;20044;-57
2022/09/11 11:17:37;;;;;;;3.35;1.58;;;22.20;99.90;;;;;;5073247;28;20389;-57
2022/09/11 11:20:15;;;;;;;4.97;1.80;;;22.10;99.90;;;;;;5055472;28;20048;-57
2022/09/11 11:23:11;;;;;;;3.08;1.55;;;22.00;99.90;;;;;;5064960;28;20529;-57
2022/09/11 11:26:02;;;;;;;2.65;2.00;;;22.00;99.90;;;;;;5066406;28;20044;-57
2022/09/11 11:28:46;;;;;;;3.55;1.73;;;22.00;99.90;;;;;;5067670;28;20111;-57
2022/09/11 11:31:40;;;;;;;1.33;1.23;;;22.20;99.90;;;;;;5049610;28;20048;-57
2022/09/11 11:34:18;;;;;;;2.33;1.90;;;22.20;99.90;;;;;;5070500;28;20040;-57
2022/09/11 11:36:51;;;;;;;6.38;2.08;;;22.20;99.90;;;;;;5073102;28;20052;-57
2022/09/11 11:39:24;;;;;;;4.72;2.10;;;22.20;99.90;;;;;;5072629;28;20052;-57
2022/09/11 11:42:13;;;;;;;5.07;2.27;;;22.20;99.90;;;;;;5057748;28;20121;-58
2022/09/11 11:44:50;;;;;;;2.35;1.70;;;22.30;99.90;;;;;;5072041;28;20287;-57
2022/09/11 11:47:24;;;;;;;4.88;2.25;;;22.00;99.90;;;;;;5052068;28;20646;-57
2022/09/11 11:50:00;;;;;;;;;;;22.20;99.90;;;;;;5058150;28;20110;-57
2022/09/11 11:52:33;;;;;;;3.53;2.22;;;22.70;99.90;;;;;;5061096;28;19920;-57
2022/09/11 11:55:11;;;;;;;3.38;1.92;;;22.80;99.90;;;;;;5061797;28;20049;-57
2022/09/11 11:57:45;;;;;;;3.42;1.83;;;23.20;99.90;;;;;;5053753;28;20056;-57
2022/09/11 12:00:15;;;;;;;1.77;1.65;;;23.80;99.90;;;;;;5067873;28;20048;-57
2022/09/11 12:02:57;;;;;;;3.50;1.98;;;24.10;99.90;;;;;;5070221;28;20116;-57
2022/09/11 12:05:26;;;;;;;3.10;2.40;;;24.30;99.90;;;;;;5064080;28;20398;-57
2022/09/11 12:07:52;;;;;;;3.13;2.05;;;24.80;99.90;;;;;;5067172;28;20044;-57
2022/09/11 12:10:39;;;;;;;5.75;2.35;;;25.20;99.90;;;;;;5065184;28;20585;-57
2022/09/11 12:13:31;;;;;;;4.40;2.42;;;25.60;99.90;;;;;;5063247;28;20094;-57
2022/09/11 12:16:23;;;;;;;3.95;2.28;;;25.60;99.90;;;;;;5066245;28;20155;-57
2022/09/11 12:19:15;;;;;;;3.78;2.72;;;25.60;99.90;;;;;;5064510;28;20090;-57
2022/09/11 12:22:08;;;;;;;4.65;2.28;;;26.80;99.90;;;;;;5068965;28;20106;-57
2022/09/11 12:24:57;;;;;;;2.97;1.85;;;27.40;99.90;;;;;;5062015;28;20060;-57
2022/09/11 12:27:35;;;;;;;5.43;2.45;;;27.10;99.90;;;;;;5070700;28;20048;-58
2022/09/11 12:30:16;;;;;;;2.70;1.50;;;27.00;99.90;;;;;;5062917;28;20049;-57
2022/09/11 12:32:56;;;;;;;5.13;1.88;;;27.60;99.90;;;;;;5058154;28;20052;-57
2022/09/11 12:35:48;;;;;;;1.77;1.67;;;28.20;99.90;;;;;;5056478;28;20101;-58
2022/09/11 12:38:25;;;;;;;2.42;1.35;;;28.50;99.90;;;;;;5059675;28;20071;-58
2022/09/11 12:40:56;;;;;;;5.07;1.70;;;28.90;99.90;;;;;;5058987;28;20045;-58
2022/09/11 12:43:29;;;;;;;2.50;1.27;;;29.70;99.90;;;;;;5054462;28;20045;-58
2022/09/11 12:45:55;;;;;;;;;;;30.30;99.90;;;;;;5056583;28;20071;-58
2022/09/11 12:48:37;;;;;;;1.10;1.00;;;30.80;99.00;;;;;;5057429;28;19975;-58
2022/09/11 12:51:04;;;;;;;3.28;1.08;;;31.50;98.50;;;;;;5051730;28;20546;-58
2022/09/11 12:53:34;;;;;;;5.97;1.52;;;33.10;98.70;;;;;;5053125;28;20568;-58
2022/09/11 12:56:06;;;;;;;2.03;1.15;;;33.40;97.30;;;;;;5053000;28;20084;-58
2022/09/11 12:58:40;;;;;;;1.50;1.20;;;35.90;95.30;;;;;;5040820;28;20052;-58
2022/09/11 13:01:29;;;;;;;1.73;1.23;;;36.30;93.80;;;;;;5054430;28;20394;-58
2022/09/11 13:04:11;;;;;;;1.90;1.23;;;38.40;92.40;;;;;;5056170;28;20041;-58
2022/09/11 13:06:44;;;;;;;1.58;0.98;;;37.50;88.10;;;;;;5058486;28;20484;-58